createdAt,value
2022-11-15T00:02:00.973Z,11.12
2022-11-15T00:04:33.201Z,10.79
2022-11-15T00:07:03.164Z,9.57
2022-11-15T00:09:31.508Z,9.65
2022-11-15T00:12:00.504Z,10.28
2022-11-15T00:14:28.385Z,10.97
2022-11-15T00:16:56.084Z,11.20
2022-11-15T00:19:23.947Z,10.19
2022-11-15T00:21:51.869Z,9.16
2022-11-15T00:24:19.882Z,9.71
2022-11-15T00:26:47.829Z,10.58
2022-11-15T00:29:16.722Z,10.98
2022-11-15T00:31:46.824Z,10.58
2022-11-15T00:34:14.893Z,9.44
2022-11-15T00:36:54.900Z,8.67
2022-11-15T00:39:24.942Z,9.50
2022-11-15T00:41:53.522Z,10.52
2022-11-15T00:44:22.879Z,10.97
2022-11-15T00:46:50.864Z,11.11
2022-11-15T00:49:19.061Z,10.13
2022-11-15T00:51:49.773Z,9.07
2022-11-15T00:54:20.535Z,8.69
2022-11-15T00:56:50.895Z,9.96
2022-11-15T00:59:19.346Z,11.02
2022-11-15T01:01:49.269Z,11.40
2022-11-15T01:04:20.737Z,10.78
2022-11-15T01:06:49.298Z,9.58
2022-11-15T01:09:17.381Z,8.82
2022-11-15T01:11:47.348Z,9.64
2022-11-15T01:14:19.286Z,10.44
2022-11-15T01:16:52.030Z,10.81
2022-11-15T01:19:21.548Z,10.91
2022-11-15T01:21:52.792Z,10.08
2022-11-15T01:24:20.707Z,8.95
2022-11-15T01:26:49.783Z,8.64
2022-11-15T01:29:17.898Z,9.44
2022-11-15T01:31:46.166Z,10.46
2022-11-15T01:34:13.927Z,11.04
2022-11-15T01:36:44.821Z,10.29
2022-11-15T01:39:12.766Z,9.09
2022-11-15T01:41:41.584Z,9.38
2022-11-15T01:44:56.276Z,10.29
2022-11-15T01:47:57.713Z,11.36
2022-11-15T01:50:33.508Z,11.07
2022-11-15T01:53:03.014Z,9.67
2022-11-15T01:55:31.379Z,8.65
2022-11-15T01:58:05.559Z,8.97
2022-11-15T02:00:35.022Z,10.31
2022-11-15T02:03:04.217Z,10.67
2022-11-15T02:05:33.929Z,9.90
2022-11-15T02:08:02.975Z,9.07
2022-11-15T02:10:32.595Z,10.06
2022-11-15T02:13:03.008Z,11.01
2022-11-15T02:15:53.523Z,11.32
2022-11-15T02:18:51.357Z,10.08
2022-11-15T02:21:33.498Z,8.87
2022-11-15T02:24:31.331Z,9.88
2022-11-15T02:27:30.617Z,11.09
2022-11-15T02:30:19.793Z,11.32
2022-11-15T02:33:14.133Z,9.95
2022-11-15T02:36:05.479Z,8.71
2022-11-15T02:39:05.027Z,8.54
2022-11-15T02:42:01.430Z,10.13
2022-11-15T02:44:47.154Z,11.36
2022-11-15T02:47:19.030Z,10.75
2022-11-15T02:49:56.188Z,9.53
2022-11-15T02:52:28.727Z,8.59
2022-11-15T02:55:01.315Z,7.92
2022-11-15T02:57:54.153Z,7.40
2022-11-15T03:00:23.320Z,7.88
2022-11-15T03:03:23.958Z,9.52
2022-11-15T03:06:09.574Z,10.96
2022-11-15T03:08:54.833Z,11.92
2022-11-15T03:11:25.265Z,11.89
2022-11-15T03:14:27.990Z,10.70
2022-11-15T03:17:21.256Z,9.37
2022-11-15T03:19:56.797Z,8.47
2022-11-15T03:22:46.605Z,8.17
2022-11-15T03:25:22.240Z,9.47
2022-11-15T03:27:56.757Z,10.69
2022-11-15T03:30:24.931Z,11.20
2022-11-15T03:32:58.599Z,10.25
2022-11-15T03:35:43.524Z,9.03
2022-11-15T03:38:31.120Z,8.14
2022-11-15T03:41:09.899Z,8.07
2022-11-15T03:43:42.479Z,9.46
2022-11-15T03:46:23.403Z,10.80
2022-11-15T03:49:07.864Z,11.54
2022-11-15T03:51:36.716Z,11.24
2022-11-15T03:54:06.348Z,9.84
2022-11-15T03:56:34.631Z,8.70
2022-11-15T03:59:03.101Z,9.07
2022-11-15T04:01:32.459Z,10.29
2022-11-15T04:04:01.171Z,10.94
2022-11-15T04:06:30.245Z,10.07
2022-11-15T04:08:58.225Z,8.78
2022-11-15T04:11:26.461Z,8.75
2022-11-15T04:13:54.938Z,9.96
2022-11-15T04:16:23.114Z,11.03
2022-11-15T04:19:11.374Z,11.33
2022-11-15T04:21:58.627Z,9.88
2022-11-15T04:24:26.807Z,8.55
2022-11-15T04:26:55.919Z,9.09
2022-11-15T04:29:37.760Z,9.89
2022-11-15T04:32:08.113Z,10.26
2022-11-15T04:34:36.212Z,9.54
2022-11-15T04:37:14.894Z,8.56
2022-11-15T04:39:46.307Z,9.38
2022-11-15T04:42:14.355Z,10.38
2022-11-15T04:44:43.807Z,10.69
2022-11-15T04:47:12.218Z,9.66
2022-11-15T04:49:45.141Z,8.45
2022-11-15T04:52:15.145Z,7.89
2022-11-15T04:54:49.633Z,9.10
2022-11-15T04:57:19.653Z,10.24
2022-11-15T04:59:49.637Z,11.03
2022-11-15T05:02:17.417Z,10.97
2022-11-15T05:04:48.026Z,9.83
2022-11-15T05:07:18.146Z,8.76
2022-11-15T05:09:46.122Z,7.97
2022-11-15T05:12:14.845Z,7.78
2022-11-15T05:14:44.689Z,9.18
2022-11-15T05:17:13.274Z,10.51
2022-11-15T05:19:41.842Z,10.91
2022-11-15T05:22:10.717Z,9.83
2022-11-15T05:24:38.878Z,8.64
2022-11-15T05:27:06.661Z,8.03
2022-11-15T05:29:34.713Z,9.38
2022-11-15T05:32:07.358Z,10.38
2022-11-15T05:34:36.072Z,10.81
2022-11-15T05:37:04.940Z,9.72
2022-11-15T05:39:34.346Z,8.58
2022-11-15T05:42:16.944Z,7.77
2022-11-15T05:44:51.047Z,7.65
2022-11-15T05:47:28.817Z,9.02
2022-11-15T05:49:58.421Z,10.18
2022-11-15T05:52:34.848Z,11.01
2022-11-15T05:55:08.081Z,11.03
2022-11-15T05:57:38.207Z,9.69
2022-11-15T06:00:07.883Z,8.50
2022-11-15T06:02:38.682Z,8.60
2022-11-15T06:05:11.010Z,9.68
2022-11-15T06:07:40.580Z,10.62
2022-11-15T06:10:10.401Z,10.96
2022-11-15T06:12:38.327Z,9.76
2022-11-15T06:15:09.287Z,8.67
2022-11-15T06:17:40.913Z,7.93
2022-11-15T06:20:13.636Z,8.93
2022-11-15T06:25:26.507Z,10.92
2022-11-15T06:27:59.919Z,10.14
2022-11-15T06:30:30.590Z,8.96
2022-11-15T06:33:08.596Z,8.15
2022-11-15T06:35:41.385Z,8.94
2022-11-15T06:38:12.756Z,10.25
2022-11-15T06:40:40.951Z,11.17
2022-11-15T06:43:10.421Z,10.61
2022-11-15T06:45:41.678Z,9.43
2022-11-15T06:48:09.971Z,8.35
2022-11-15T06:50:39.984Z,7.64
2022-11-15T06:53:10.499Z,8.26
2022-11-15T06:55:42.528Z,9.74
2022-11-15T06:58:12.278Z,10.55
2022-11-15T07:00:43.619Z,10.28
2022-11-15T07:03:15.941Z,9.14
2022-11-15T07:05:52.214Z,8.15
2022-11-15T07:08:22.150Z,8.71
2022-11-15T07:10:53.458Z,9.57
2022-11-15T07:13:26.797Z,10.48
2022-11-15T07:15:54.725Z,10.31
2022-11-15T07:18:26.735Z,9.21
2022-11-15T07:20:54.634Z,8.23
2022-11-15T07:23:25.002Z,7.85
2022-11-15T07:25:53.110Z,9.10
2022-11-15T07:28:22.860Z,10.39
2022-11-15T07:30:51.231Z,11.23
2022-11-15T07:33:19.364Z,11.14
2022-11-15T07:35:50.645Z,10.00
2022-11-15T07:38:20.931Z,9.03
2022-11-15T07:41:01.810Z,8.34
2022-11-15T07:43:32.777Z,7.79
2022-11-15T07:46:10.380Z,7.77
2022-11-15T07:48:44.812Z,9.68
2022-11-15T07:51:15.793Z,11.08
2022-11-15T07:53:45.829Z,11.62
2022-11-15T07:56:25.678Z,10.66
2022-11-15T07:58:55.089Z,9.50
2022-11-15T08:01:30.337Z,8.67
2022-11-15T08:03:58.298Z,8.08
2022-11-15T08:06:26.164Z,7.60
2022-11-15T08:08:54.741Z,7.60
2022-11-15T08:11:25.398Z,9.10
2022-11-15T08:13:53.140Z,10.56
2022-11-15T08:16:21.403Z,11.37
2022-11-15T08:18:53.687Z,11.16
2022-11-15T08:21:24.977Z,10.02
2022-11-15T08:23:54.913Z,9.00
2022-11-15T08:26:31.521Z,9.21
2022-11-15T08:28:59.860Z,10.45
2022-11-15T08:31:28.990Z,11.37
2022-11-15T08:33:57.638Z,11.20
2022-11-15T08:36:25.376Z,10.16
2022-11-15T08:38:56.665Z,9.19
2022-11-15T08:41:39.221Z,8.78
2022-11-15T08:44:07.595Z,10.12
2022-11-15T08:46:35.285Z,11.10
2022-11-15T08:49:03.068Z,10.98
2022-11-15T08:51:30.780Z,10.02
2022-11-15T08:53:59.143Z,9.19
2022-11-15T08:56:29.488Z,9.97
2022-11-15T08:58:57.597Z,11.19
2022-11-15T09:01:25.394Z,11.64
2022-11-15T09:03:59.306Z,10.57
2022-11-15T09:06:27.092Z,9.41
2022-11-15T09:08:55.224Z,8.97
2022-11-15T09:11:24.755Z,10.01
2022-11-15T09:13:53.557Z,11.12
2022-11-15T09:16:25.396Z,11.43
2022-11-15T09:18:55.589Z,10.34
2022-11-15T09:21:24.167Z,9.30
2022-11-15T09:23:53.586Z,9.17
2022-11-15T09:26:22.370Z,10.29
2022-11-15T09:28:50.258Z,11.26
2022-11-15T09:31:22.049Z,11.32
2022-11-15T09:33:56.547Z,10.14
2022-11-15T09:36:33.072Z,9.26
2022-11-15T09:39:04.151Z,10.09
2022-11-15T09:42:12.157Z,11.08
2022-11-15T09:45:04.806Z,11.24
2022-11-15T09:48:31.191Z,10.08
2022-11-15T09:51:02.419Z,8.88
2022-11-15T09:54:37.366Z,9.36
2022-11-15T09:56:53.183Z,10.93
2022-11-15T09:59:43.516Z,11.58
2022-11-15T10:02:46.047Z,11.27
2022-11-15T10:05:28.193Z,9.84
2022-11-15T10:08:19.804Z,9.79
2022-11-15T10:11:35.753Z,10.81
2022-11-15T10:13:55.361Z,11.64
2022-11-15T10:17:28.989Z,11.92
2022-11-15T10:20:18.780Z,10.27
2022-11-15T10:23:17.495Z,9.71
2022-11-15T10:25:49.696Z,11.18
2022-11-15T10:28:31.582Z,12.05
2022-11-15T10:31:02.983Z,11.84
2022-11-15T10:33:36.549Z,10.61
2022-11-15T10:36:15.913Z,9.80
2022-11-15T10:39:24.594Z,10.80
2022-11-15T10:42:29.739Z,12.20
2022-11-15T10:45:02.936Z,12.92
2022-11-15T10:47:39.582Z,12.44
2022-11-15T10:50:30.000Z,11.01
2022-11-15T10:53:01.412Z,9.82
2022-11-15T10:55:35.217Z,10.25
2022-11-15T10:58:39.229Z,11.28
2022-11-15T11:01:20.897Z,12.28
2022-11-15T11:04:10.551Z,11.82
2022-11-15T11:07:03.176Z,10.22
2022-11-15T11:09:43.578Z,10.83
2022-11-15T11:12:15.691Z,11.77
2022-11-15T11:14:45.738Z,11.45
2022-11-15T11:17:30.535Z,10.30
2022-11-15T11:20:34.213Z,10.21
2022-11-15T11:23:35.574Z,11.39
2022-11-15T11:26:47.328Z,11.86
2022-11-15T11:29:44.933Z,11.00
2022-11-15T11:32:55.459Z,9.78
2022-11-15T11:35:53.063Z,10.42
2022-11-15T11:38:40.331Z,11.53
2022-11-15T11:41:36.127Z,12.10
2022-11-15T11:44:24.822Z,11.22
2022-11-15T11:47:14.876Z,10.12
2022-11-15T11:49:54.323Z,11.51
2022-11-15T11:52:47.412Z,12.44
2022-11-15T11:55:39.628Z,11.25
2022-11-15T11:58:45.617Z,9.94
2022-11-15T12:01:44.514Z,10.37
2022-11-15T12:04:41.823Z,12.08
2022-11-15T12:07:27.175Z,11.91
2022-11-15T12:10:08.290Z,10.47
2022-11-15T12:12:56.915Z,9.83
2022-11-15T12:15:33.880Z,10.89
2022-11-15T12:18:06.733Z,11.88
2022-11-15T12:20:43.004Z,12.18
2022-11-15T12:23:28.025Z,11.06
2022-11-15T12:26:17.018Z,10.08
2022-11-15T12:29:35.252Z,11.01
2022-11-15T12:32:10.950Z,11.89
2022-11-15T12:35:13.683Z,11.29
2022-11-15T12:37:44.319Z,10.13
2022-11-15T12:40:33.854Z,11.02
2022-11-15T12:43:14.685Z,11.64
2022-11-15T12:45:50.333Z,11.75
2022-11-15T12:48:18.556Z,12.16
2022-11-15T12:50:55.674Z,11.12
2022-11-15T12:53:24.468Z,9.93
2022-11-15T12:56:17.654Z,9.41
2022-11-15T12:59:08.797Z,10.52
2022-11-15T13:01:39.896Z,11.68
2022-11-15T13:04:21.079Z,11.10
2022-11-15T13:06:56.911Z,9.90
2022-11-15T13:09:31.216Z,9.31
2022-11-15T13:12:28.257Z,10.67
2022-11-15T13:15:03.053Z,10.75
2022-11-15T13:17:49.300Z,9.59
2022-11-15T13:20:33.112Z,9.51
2022-11-15T13:23:17.497Z,10.65
2022-11-15T13:26:09.940Z,11.20
2022-11-15T13:28:51.576Z,10.11
2022-11-15T13:31:37.880Z,9.34
2022-11-15T13:34:52.892Z,10.40
2022-11-15T13:37:22.236Z,11.25
2022-11-15T13:39:52.249Z,10.31
2022-11-15T13:42:24.819Z,9.20
2022-11-15T13:45:08.465Z,9.69
2022-11-15T13:47:36.381Z,10.65
2022-11-15T13:50:09.600Z,10.34
2022-11-15T13:52:47.188Z,9.14
2022-11-15T13:55:22.496Z,9.48
2022-11-15T13:57:59.662Z,10.27
2022-11-15T14:00:35.625Z,10.70
2022-11-15T14:03:23.278Z,9.78
2022-11-15T14:06:14.463Z,8.75
2022-11-15T14:09:10.791Z,8.72
2022-11-15T14:11:51.734Z,10.33
2022-11-15T14:14:25.948Z,10.93
2022-11-15T14:17:01.027Z,9.92
2022-11-15T14:19:42.257Z,8.76
2022-11-15T14:22:22.954Z,9.60
2022-11-15T14:25:22.655Z,10.67
2022-11-15T14:28:24.569Z,9.72
2022-11-15T14:30:58.306Z,8.77
2022-11-15T14:33:37.503Z,9.28
2022-11-15T14:36:21.463Z,10.16
2022-11-15T14:38:51.349Z,10.47
2022-11-15T14:41:24.353Z,9.40
2022-11-15T14:43:54.593Z,8.57
2022-11-15T14:46:26.750Z,8.89
2022-11-15T14:48:54.746Z,10.13
2022-11-15T14:51:22.865Z,10.65
2022-11-15T14:53:53.609Z,9.71
2022-11-15T14:56:22.863Z,8.68
2022-11-15T14:58:51.105Z,8.50
2022-11-15T15:01:27.749Z,9.30
2022-11-15T15:03:58.176Z,9.92
2022-11-15T15:06:27.515Z,9.42
2022-11-15T15:09:00.108Z,8.58
2022-11-15T15:11:33.963Z,8.03
2022-11-15T15:14:05.119Z,8.41
2022-11-15T15:16:33.380Z,9.85
2022-11-15T15:19:04.355Z,10.67
2022-11-15T15:21:37.128Z,9.98
2022-11-15T15:24:06.997Z,8.92
2022-11-15T15:26:37.414Z,8.64
2022-11-15T15:29:05.861Z,10.01
2022-11-15T15:31:35.943Z,10.73
2022-11-15T15:34:08.761Z,9.93
2022-11-15T15:36:38.804Z,8.88
2022-11-15T15:39:11.660Z,8.26
2022-11-15T15:41:42.280Z,9.01
2022-11-15T15:44:10.604Z,10.38
2022-11-15T15:46:40.125Z,10.25
2022-11-15T15:49:11.131Z,9.22
2022-11-15T15:51:42.002Z,8.42
2022-11-15T15:54:12.191Z,8.58
2022-11-15T15:56:41.313Z,9.94
2022-11-15T15:59:09.138Z,10.43
2022-11-15T16:01:37.169Z,9.58
2022-11-15T16:04:05.640Z,8.74
2022-11-15T16:06:45.512Z,8.04
2022-11-15T16:09:19.869Z,8.56
2022-11-15T16:11:49.745Z,9.42
2022-11-15T16:14:18.579Z,8.95
2022-11-15T16:16:53.321Z,8.10
2022-11-15T16:19:21.305Z,7.81
2022-11-15T16:21:50.841Z,8.90
2022-11-15T16:24:20.958Z,9.82
2022-11-15T16:26:52.236Z,9.07
2022-11-15T16:29:20.953Z,8.19
2022-11-15T16:31:58.247Z,7.58
2022-11-15T16:34:30.532Z,8.50
2022-11-15T16:37:01.864Z,10.11
2022-11-15T16:39:33.051Z,10.05
2022-11-15T16:42:06.125Z,8.84
2022-11-15T16:44:36.323Z,8.03
2022-11-15T16:47:04.416Z,7.32
2022-11-15T16:49:34.496Z,7.03
2022-11-15T16:52:04.782Z,8.08
2022-11-15T16:54:33.283Z,8.92
2022-11-15T16:57:05.194Z,8.32
2022-11-15T16:59:38.165Z,7.68
2022-11-15T17:02:13.308Z,7.10
2022-11-15T17:04:41.239Z,7.09
2022-11-15T17:07:11.134Z,8.70
2022-11-15T17:09:39.457Z,9.85
2022-11-15T17:12:11.875Z,9.29
2022-11-15T17:14:40.060Z,8.33
2022-11-15T17:17:12.058Z,7.65
2022-11-15T17:19:40.956Z,7.19
2022-11-15T17:22:10.449Z,6.88
2022-11-15T17:24:38.867Z,7.21
2022-11-15T17:27:09.342Z,8.75
2022-11-15T17:29:37.425Z,9.15
2022-11-15T17:32:18.992Z,8.36
2022-11-15T17:34:49.416Z,7.65
2022-11-15T17:37:19.797Z,7.11
2022-11-15T17:39:49.850Z,7.75
2022-11-15T17:42:17.767Z,9.12
2022-11-15T17:44:45.648Z,8.74
2022-11-15T17:47:21.019Z,7.87
2022-11-15T17:49:49.624Z,7.17
2022-11-15T17:52:23.501Z,6.97
2022-11-15T17:54:51.883Z,8.09
2022-11-15T17:57:19.762Z,9.28
2022-11-15T17:59:52.133Z,8.94
2022-11-15T18:02:22.387Z,8.17
2022-11-15T18:04:50.399Z,7.52
2022-11-15T18:07:18.501Z,6.98
2022-11-15T18:09:50.110Z,7.19
2022-11-15T18:12:18.020Z,8.60
2022-11-15T18:14:47.287Z,8.72
2022-11-15T18:17:18.736Z,8.00
2022-11-15T18:19:50.728Z,7.25
2022-11-15T18:22:23.698Z,6.79
2022-11-15T18:24:52.396Z,6.76
2022-11-15T18:27:22.478Z,8.07
2022-11-15T18:29:52.496Z,8.76
2022-11-15T18:32:23.410Z,8.16
2022-11-15T18:34:57.385Z,7.44
2022-11-15T18:37:25.325Z,6.90
2022-11-15T18:39:54.254Z,6.59
2022-11-15T18:42:24.323Z,7.44
2022-11-15T18:45:02.376Z,9.24
2022-11-15T18:47:31.724Z,9.00
2022-11-15T18:50:01.863Z,7.84
2022-11-15T18:52:46.351Z,7.13
2022-11-15T18:55:16.988Z,6.64
2022-11-15T18:57:48.265Z,7.19
2022-11-15T19:00:19.957Z,8.81
2022-11-15T19:02:48.079Z,8.90
2022-11-15T19:05:21.426Z,7.82
2022-11-15T19:07:50.429Z,7.09
2022-11-15T19:10:18.919Z,6.64
2022-11-15T19:12:48.114Z,7.26
2022-11-15T19:15:17.943Z,8.54
2022-11-15T19:17:46.080Z,8.29
2022-11-15T19:20:15.481Z,7.51
2022-11-15T19:22:48.883Z,6.86
2022-11-15T19:25:19.085Z,6.57
2022-11-15T19:27:47.427Z,7.59
2022-11-15T19:30:17.858Z,8.38
2022-11-15T19:32:45.915Z,7.80
2022-11-15T19:35:16.539Z,7.18
2022-11-15T19:37:44.295Z,6.65
2022-11-15T19:40:15.335Z,6.69
2022-11-15T19:42:46.626Z,7.93
2022-11-15T19:45:16.266Z,8.14
2022-11-15T19:47:49.380Z,7.58
2022-11-15T19:50:18.825Z,7.00
2022-11-15T19:52:49.213Z,6.55
2022-11-15T19:55:18.817Z,6.41
2022-11-15T19:57:48.872Z,7.59
2022-11-15T20:00:20.154Z,8.29
2022-11-15T20:02:48.851Z,7.70
2022-11-15T20:05:19.242Z,7.07
2022-11-15T20:07:53.429Z,6.62
2022-11-15T20:10:25.664Z,6.77
2022-11-15T20:12:55.660Z,8.19
2022-11-15T20:15:23.612Z,8.31
2022-11-15T20:17:52.104Z,7.62
2022-11-15T20:20:23.846Z,6.93
2022-11-15T20:23:03.296Z,6.44
2022-11-15T20:25:39.555Z,6.92
2022-11-15T20:28:10.156Z,7.94
2022-11-15T20:30:39.755Z,7.72
2022-11-15T20:33:09.246Z,7.10
2022-11-15T20:35:39.620Z,6.48
2022-11-15T20:38:11.520Z,6.45
2022-11-15T20:40:42.741Z,7.52
2022-11-15T20:43:16.555Z,7.59
2022-11-15T20:45:48.696Z,6.88
2022-11-15T20:48:28.788Z,6.37
2022-11-15T20:51:12.810Z,6.83
2022-11-15T20:53:44.662Z,7.68
2022-11-15T20:56:18.854Z,7.44
2022-11-15T20:58:54.478Z,6.91
2022-11-15T21:01:25.712Z,6.36
2022-11-15T21:03:58.029Z,7.01
2022-11-15T21:06:27.497Z,8.26
2022-11-15T21:09:15.094Z,7.67
2022-11-15T21:12:06.889Z,6.93
2022-11-15T21:14:38.331Z,6.41
2022-11-15T21:17:08.606Z,7.06
2022-11-15T21:19:37.886Z,7.67
2022-11-15T21:22:07.127Z,7.25
2022-11-15T21:24:35.322Z,6.63
2022-11-15T21:27:03.816Z,6.46
2022-11-15T21:29:40.815Z,7.28
2022-11-15T21:32:09.876Z,7.44
2022-11-15T21:34:39.551Z,6.85
2022-11-15T21:37:12.750Z,6.32
2022-11-15T21:39:44.740Z,6.53
2022-11-15T21:42:17.088Z,7.34
2022-11-15T21:44:50.676Z,7.07
2022-11-15T21:47:19.757Z,6.53
2022-11-15T21:49:50.359Z,6.28
2022-11-15T21:52:19.310Z,7.15
2022-11-15T21:54:49.152Z,7.82
2022-11-15T21:57:30.194Z,7.33
2022-11-15T22:00:25.079Z,6.63
2022-11-15T22:03:03.765Z,6.62
2022-11-15T22:05:45.541Z,7.59
2022-11-15T22:08:14.849Z,7.32
2022-11-15T22:10:47.626Z,6.81
2022-11-15T22:13:17.341Z,6.33
2022-11-15T22:15:47.583Z,7.10
2022-11-15T22:18:15.486Z,8.16
2022-11-15T22:20:57.151Z,7.66
2022-11-15T22:23:30.832Z,6.84
2022-11-15T22:26:01.165Z,6.39
2022-11-15T22:28:31.433Z,7.07
2022-11-15T22:31:01.105Z,7.75
2022-11-15T22:33:31.969Z,7.13
2022-11-15T22:36:01.236Z,6.54
2022-11-15T22:38:35.218Z,6.73
2022-11-15T22:41:04.753Z,8.10
2022-11-15T22:43:32.488Z,7.90
2022-11-15T22:46:04.248Z,7.02
2022-11-15T22:48:39.164Z,6.49
2022-11-15T22:51:10.724Z,7.13
2022-11-15T22:53:43.344Z,7.81
2022-11-15T22:56:20.173Z,7.59
2022-11-15T22:58:49.153Z,6.78
2022-11-15T23:01:22.116Z,6.98
2022-11-15T23:03:58.658Z,8.50
2022-11-15T23:06:26.565Z,8.75
2022-11-15T23:08:54.624Z,7.97
2022-11-15T23:11:41.580Z,7.08
2022-11-15T23:14:09.360Z,6.46
2022-11-15T23:16:37.607Z,7.14
2022-11-15T23:19:14.511Z,7.93
2022-11-15T23:22:05.517Z,7.26
2022-11-15T23:24:34.539Z,6.55
2022-11-15T23:27:07.723Z,7.00
2022-11-15T23:29:58.985Z,8.06
2022-11-15T23:32:46.139Z,7.39
2022-11-15T23:35:18.285Z,6.58
2022-11-15T23:37:46.736Z,6.90
2022-11-15T23:40:14.834Z,7.74
2022-11-15T23:42:43.695Z,7.67
2022-11-15T23:45:11.908Z,6.82
2022-11-15T23:47:41.333Z,6.37
2022-11-15T23:50:10.002Z,7.25
2022-11-15T23:52:40.958Z,7.99
2022-11-15T23:55:10.319Z,7.51
2022-11-15T23:57:39.310Z,6.83
